Terminal Aerodrome Forecast
Issued by NWS

Home | Current Version | Previous Version | Text Only | Print | Product List | Glossary On
Versions: 1 2 3 4 5 6 7 8 9 10 11 12 13 14 15 16 17 18 19 20 21 22 23 24 25 26 27 28 29 30 31 32 33 34 35 36 37 38 39 40 41 42 43 44 45 46 47 48 49 50
000
FTUS45 KBOU 282309 AAC
TAFBJC
TAF AMD
KBJC 282309Z 2823/2918 08008KT P6SM VCTS SCT050CB BKN100
      TEMPO 2823/2901 VRB15G25KT -TSRA BKN050CB
     FM290100 15008KT P6SM VCSH SCT050 BKN100
     FM290300 23008KT P6SM SCT080 SCT120
     FM290500 30006KT P6SM SCT070 SCT120
     FM291000 28006KT P6SM VCSH SCT070 BKN120
     FM291600 01010KT P6SM SCT040 BKN080=

USA.gov is the U.S. government's official web portal to all federal, state and local government web resources and services.